createdAt,value
2023-03-13T00:12:25.665Z,0.33
2023-03-13T00:42:31.204Z,0
2023-03-13T00:57:26.938Z,1.5
2023-03-13T01:42:25.849Z,0
2023-03-13T01:57:26.121Z,0
2023-03-13T02:12:31.942Z,0
2023-03-13T02:27:26.250Z,0
2023-03-13T02:57:26.008Z,0.03
2023-03-13T03:12:25.789Z,0.08
2023-03-13T03:27:26.544Z,0.02
2023-03-13T03:42:26.377Z,0
2023-03-13T03:57:26.039Z,0
2023-03-13T04:12:26.237Z,11.63
2023-03-13T04:42:26.201Z,0.01
2023-03-13T04:58:38.723Z,1.3
2023-03-13T05:12:28.702Z,1.75
2023-03-13T05:27:26.663Z,2.46
2023-03-13T05:42:27.337Z,9.46
2023-03-13T05:57:26.120Z,15.02
2023-03-13T06:42:26.358Z,0.97
2023-03-13T06:57:25.997Z,0.1
2023-03-13T07:27:25.742Z,17.92
2023-03-13T07:42:26.284Z,17.07
2023-03-13T07:57:26.407Z,3.87
2023-03-13T08:12:25.816Z,4.73
2023-03-13T08:27:26.444Z,17.63
2023-03-13T08:42:26.042Z,8.81
2023-03-13T08:57:25.787Z,11.18
2023-03-13T09:12:30.970Z,0.49
2023-03-13T09:27:26.127Z,1.87
2023-03-13T09:57:25.918Z,4.04
2023-03-13T10:12:26.490Z,0.96
2023-03-13T10:27:25.499Z,0.04
2023-03-13T11:27:27.309Z,2.31
2023-03-13T11:57:25.617Z,0.02
2023-03-13T12:12:25.878Z,0.09
2023-03-13T12:42:25.493Z,0
2023-03-13T12:57:26.230Z,0
2023-03-13T13:12:26.074Z,0.03
2023-03-13T13:42:26.339Z,0
2023-03-13T13:57:25.309Z,0
2023-03-13T14:12:26.109Z,0
2023-03-13T14:42:25.865Z,0
2023-03-13T14:57:27.084Z,0
2023-03-13T15:12:26.009Z,0.11
2023-03-13T15:42:26.412Z,0.85
2023-03-13T15:57:25.469Z,0.13
2023-03-13T16:27:25.971Z,1.42
2023-03-13T16:42:25.446Z,0.04
2023-03-13T16:57:25.464Z,0.81
2023-03-13T17:12:25.648Z,3.46
2023-03-13T17:27:25.266Z,5.78
2023-03-13T17:42:25.475Z,10.64
2023-03-13T17:57:25.443Z,17.73
2023-03-13T18:12:26.080Z,21.9
2023-03-13T18:27:25.992Z,12.61
2023-03-13T18:42:26.454Z,15.69
2023-03-13T18:57:25.397Z,25.9
2023-03-13T19:12:26.002Z,25.86
2023-03-13T19:27:25.748Z,17.94
2023-03-13T19:42:26.067Z,37.23
2023-03-13T19:57:25.699Z,13.35
2023-03-13T20:12:26.020Z,6.21
2023-03-13T20:27:25.791Z,7.59
2023-03-13T20:42:25.420Z,3.48
2023-03-13T20:57:25.370Z,2.29
2023-03-13T21:12:25.664Z,3.68
2023-03-13T22:12:25.816Z,1.39
2023-03-13T22:42:25.568Z,0.52
2023-03-13T22:57:25.644Z,1.41
2023-03-13T23:12:25.451Z,1.48
2023-03-13T23:27:26.154Z,0.48
2023-03-13T23:42:27.347Z,1.02
